Scarborough, Trinidad And Tobago

6:21 PM AST on July 30, 2016 (GMT -0400)
Crown Point | | Change Station

Elev 26 ft 11.15 °N, 60.84 °W | Updated 21 minutes ago

Partly Cloudy
Partly Cloudy
84 °F
Feels Like 91 °F
N
5
Wind Variable Wind from ESE

Today
High -- | Low -- °F
--% Chance of Precip.
Yesterday
High -- | Low -- °F
Precip. -- in
Pressure 29.83 in
Visibility 6.2 miles
Clouds Few 1600 ft
Heat Index 91 °F
Dew Point 73 °F
Humidity 70%
Rainfall 0.00 in
Snow Depth Not available.
5:51 AM 6:28 PM
Waning Crescent, 10% visible
METAR TTCP 302200Z 12004KT 9999 FEW016 29/23 Q1010 NOSIG RMK JP-SSE,S,NW,NNW
Pressure 29.83 in
Visibility 6.2 miles
Clouds Few 1600 ft
Heat Index 91 °F
Dew Point 73 °F
Humidity 70%
Rainfall 0.00 in
Snow Depth Not available.
5:51 AM 6:28 PM
Waning Crescent, 10% visible
METAR TTCP 302200Z 12004KT 9999 FEW016 29/23 Q1010 NOSIG RMK JP-SSE,S,NW,NNW

10-Day Weather Forecast

No radar image for this location.
×

Almanac

Astronomy

Jul. 30, 2016 Rise Set
Actual Time
Civil Twilight
Nautical Twilight
Astronomical Twilight
Moon
Length of Visible Light
Length of Day
Tomorrow will be .
, % of the Moon is Illuminated

Today's Extremes

Country Highs Country Lows

Community

WunderPhotos

Upload Photos

1,928,663 photos uploaded!

WunderBlog® & News

Nearby

Air Quality

  Air Quality AQ Index Pollutant
Not available.

Snow Depth

Station Depth Elevation

Earthquake Activity

City Distance Mag. Time & Date
Minimum magnitude displayed is 2.5.

Coastal Water Temperatures

Place Temperature

Stations

Nearby Weather Stations

Station Location Temp. Windchill Dew Point Humidity Wind Precip. Elev Updated Type